sensor_id;sensor_type;location;lat;lon;timestamp;P1;durP1;ratioP1;P2;durP2;ratioP2
50789;SDS011;37287;47.554;7.844;2023-11-19T00:03:30;9.75;;;5.40;;
50789;SDS011;37287;47.554;7.844;2023-11-19T00:05:59;5.78;;;5.13;;
50789;SDS011;37287;47.554;7.844;2023-11-19T00:08:25;5.70;;;4.95;;
50789;SDS011;37287;47.554;7.844;2023-11-19T00:10:54;6.32;;;5.72;;
50789;SDS011;37287;47.554;7.844;2023-11-19T00:13:21;6.68;;;5.30;;
50789;SDS011;37287;47.554;7.844;2023-11-19T00:15:49;5.18;;;4.68;;
50789;SDS011;37287;47.554;7.844;2023-11-19T00:18:16;5.40;;;4.88;;
50789;SDS011;37287;47.554;7.844;2023-11-19T00:23:41;5.38;;;4.63;;
50789;SDS011;37287;47.554;7.844;2023-11-19T00:26:14;6.57;;;5.07;;
50789;SDS011;37287;47.554;7.844;2023-11-19T00:28:41;4.63;;;4.22;;
50789;SDS011;37287;47.554;7.844;2023-11-19T00:31:09;5.97;;;5.30;;
50789;SDS011;37287;47.554;7.844;2023-11-19T00:33:37;6.25;;;4.97;;
50789;SDS011;37287;47.554;7.844;2023-11-19T00:36:15;6.47;;;5.10;;
50789;SDS011;37287;47.554;7.844;2023-11-19T00:38:46;5.43;;;4.80;;
50789;SDS011;37287;47.554;7.844;2023-11-19T00:41:13;6.15;;;5.53;;
50789;SDS011;37287;47.554;7.844;2023-11-19T00:43:42;7.45;;;5.60;;
50789;SDS011;37287;47.554;7.844;2023-11-19T00:46:11;8.10;;;6.90;;
50789;SDS011;37287;47.554;7.844;2023-11-19T00:48:40;8.32;;;7.32;;
50789;SDS011;37287;47.554;7.844;2023-11-19T00:51:06;7.68;;;6.00;;
50789;SDS011;37287;47.554;7.844;2023-11-19T00:53:33;9.60;;;7.13;;
50789;SDS011;37287;47.554;7.844;2023-11-19T00:56:00;6.65;;;5.95;;
50789;SDS011;37287;47.554;7.844;2023-11-19T00:58:26;7.32;;;6.07;;
50789;SDS011;37287;47.554;7.844;2023-11-19T01:00:53;8.55;;;6.28;;
50789;SDS011;37287;47.554;7.844;2023-11-19T01:03:20;8.05;;;6.65;;
50789;SDS011;37287;47.554;7.844;2023-11-19T01:05:47;7.75;;;6.35;;
50789;SDS011;37287;47.554;7.844;2023-11-19T01:08:14;9.70;;;6.50;;
50789;SDS011;37287;47.554;7.844;2023-11-19T01:10:42;7.88;;;6.40;;
50789;SDS011;37287;47.554;7.844;2023-11-19T01:13:09;11.00;;;6.40;;
50789;SDS011;37287;47.554;7.844;2023-11-19T01:15:36;8.40;;;6.70;;
50789;SDS011;37287;47.554;7.844;2023-11-19T01:18:07;8.77;;;6.13;;
50789;SDS011;37287;47.554;7.844;2023-11-19T01:20:44;8.88;;;7.22;;
50789;SDS011;37287;47.554;7.844;2023-11-19T01:23:10;8.50;;;6.47;;
50789;SDS011;37287;47.554;7.844;2023-11-19T01:25:37;9.02;;;6.15;;
50789;SDS011;37287;47.554;7.844;2023-11-19T01:28:10;6.95;;;5.82;;
50789;SDS011;37287;47.554;7.844;2023-11-19T01:30:37;8.05;;;7.07;;
50789;SDS011;37287;47.554;7.844;2023-11-19T01:33:04;6.47;;;5.88;;
50789;SDS011;37287;47.554;7.844;2023-11-19T01:35:30;7.53;;;6.82;;
50789;SDS011;37287;47.554;7.844;2023-11-19T01:37:57;6.97;;;5.85;;
50789;SDS011;37287;47.554;7.844;2023-11-19T01:40:24;8.38;;;6.35;;
50789;SDS011;37287;47.554;7.844;2023-11-19T01:42:52;9.50;;;7.70;;
50789;SDS011;37287;47.554;7.844;2023-11-19T01:45:27;9.02;;;7.22;;
50789;SDS011;37287;47.554;7.844;2023-11-19T01:50:53;8.10;;;6.30;;
50789;SDS011;37287;47.554;7.844;2023-11-19T01:53:29;7.05;;;6.25;;
50789;SDS011;37287;47.554;7.844;2023-11-19T01:55:56;6.15;;;5.43;;
50789;SDS011;37287;47.554;7.844;2023-11-19T01:58:25;7.28;;;6.50;;
50789;SDS011;37287;47.554;7.844;2023-11-19T02:00:53;6.15;;;5.53;;
50789;SDS011;37287;47.554;7.844;2023-11-19T02:03:20;7.82;;;6.53;;
50789;SDS011;37287;47.554;7.844;2023-11-19T02:05:49;9.13;;;7.70;;
50789;SDS011;37287;47.554;7.844;2023-11-19T02:08:18;7.05;;;6.32;;
50789;SDS011;37287;47.554;7.844;2023-11-19T02:10:46;7.70;;;6.70;;
50789;SDS011;37287;47.554;7.844;2023-11-19T02:13:13;6.85;;;5.90;;
50789;SDS011;37287;47.554;7.844;2023-11-19T02:15:43;6.28;;;5.68;;
50789;SDS011;37287;47.554;7.844;2023-11-19T02:18:23;6.90;;;5.65;;
50789;SDS011;37287;47.554;7.844;2023-11-19T02:23:32;6.00;;;5.40;;
50789;SDS011;37287;47.554;7.844;2023-11-19T02:28:37;6.80;;;6.10;;
50789;SDS011;37287;47.554;7.844;2023-11-19T02:33:38;6.80;;;5.65;;
50789;SDS011;37287;47.554;7.844;2023-11-19T02:36:07;7.50;;;6.72;;
50789;SDS011;37287;47.554;7.844;2023-11-19T02:38:35;6.90;;;6.22;;
50789;SDS011;37287;47.554;7.844;2023-11-19T02:41:03;7.38;;;6.60;;
50789;SDS011;37287;47.554;7.844;2023-11-19T02:43:33;7.45;;;6.65;;
50789;SDS011;37287;47.554;7.844;2023-11-19T02:46:04;8.52;;;6.90;;
50789;SDS011;37287;47.554;7.844;2023-11-19T02:48:36;8.40;;;7.32;;
50789;SDS011;37287;47.554;7.844;2023-11-19T02:53:40;8.98;;;7.57;;
50789;SDS011;37287;47.554;7.844;2023-11-19T02:56:09;9.60;;;7.30;;
50789;SDS011;37287;47.554;7.844;2023-11-19T02:58:45;8.00;;;6.70;;
50789;SDS011;37287;47.554;7.844;2023-11-19T03:01:23;8.38;;;7.25;;
50789;SDS011;37287;47.554;7.844;2023-11-19T03:03:58;7.03;;;6.32;;
50789;SDS011;37287;47.554;7.844;2023-11-19T03:06:29;6.63;;;6.00;;
50789;SDS011;37287;47.554;7.844;2023-11-19T03:08:56;6.63;;;5.97;;
50789;SDS011;37287;47.554;7.844;2023-11-19T03:11:23;7.45;;;5.65;;
50789;SDS011;37287;47.554;7.844;2023-11-19T03:13:52;5.57;;;5.07;;
50789;SDS011;37287;47.554;7.844;2023-11-19T03:16:20;7.90;;;6.65;;
50789;SDS011;37287;47.554;7.844;2023-11-19T03:18:47;6.90;;;6.20;;
50789;SDS011;37287;47.554;7.844;2023-11-19T03:23:55;8.48;;;6.00;;
50789;SDS011;37287;47.554;7.844;2023-11-19T03:26:22;6.05;;;5.43;;
50789;SDS011;37287;47.554;7.844;2023-11-19T03:28:51;7.72;;;6.15;;
50789;SDS011;37287;47.554;7.844;2023-11-19T03:31:17;6.18;;;5.55;;
50789;SDS011;37287;47.554;7.844;2023-11-19T03:33:44;6.88;;;6.18;;
50789;SDS011;37287;47.554;7.844;2023-11-19T03:36:11;6.28;;;5.68;;
50789;SDS011;37287;47.554;7.844;2023-11-19T03:38:40;6.88;;;6.20;;
50789;SDS011;37287;47.554;7.844;2023-11-19T03:41:13;6.25;;;5.65;;
50789;SDS011;37287;47.554;7.844;2023-11-19T03:43:40;8.32;;;6.05;;
50789;SDS011;37287;47.554;7.844;2023-11-19T03:46:20;6.80;;;5.88;;
50789;SDS011;37287;47.554;7.844;2023-11-19T03:48:51;6.95;;;5.93;;
50789;SDS011;37287;47.554;7.844;2023-11-19T03:53:58;7.10;;;6.00;;
50789;SDS011;37287;47.554;7.844;2023-11-19T03:56:25;7.85;;;6.35;;
50789;SDS011;37287;47.554;7.844;2023-11-19T03:58:53;8.35;;;6.25;;
50789;SDS011;37287;47.554;7.844;2023-11-19T04:01:24;8.55;;;7.07;;
50789;SDS011;37287;47.554;7.844;2023-11-19T04:03:51;7.03;;;6.30;;
50789;SDS011;37287;47.554;7.844;2023-11-19T04:06:18;9.35;;;7.80;;
50789;SDS011;37287;47.554;7.844;2023-11-19T04:08:46;8.45;;;7.30;;
50789;SDS011;37287;47.554;7.844;2023-11-19T04:11:13;8.20;;;7.40;;
50789;SDS011;37287;47.554;7.844;2023-11-19T04:13:41;7.35;;;6.65;;
50789;SDS011;37287;47.554;7.844;2023-11-19T04:16:09;7.70;;;6.13;;
50789;SDS011;37287;47.554;7.844;2023-11-19T04:18:36;7.15;;;6.38;;
50789;SDS011;37287;47.554;7.844;2023-11-19T04:21:05;7.40;;;6.43;;
50789;SDS011;37287;47.554;7.844;2023-11-19T04:23:34;7.50;;;6.15;;
50789;SDS011;37287;47.554;7.844;2023-11-19T04:26:03;7.28;;;6.57;;
50789;SDS011;37287;47.554;7.844;2023-11-19T04:28:33;7.45;;;6.55;;
50789;SDS011;37287;47.554;7.844;2023-11-19T04:31:02;8.15;;;6.50;;
50789;SDS011;37287;47.554;7.844;2023-11-19T04:33:30;7.80;;;7.03;;
50789;SDS011;37287;47.554;7.844;2023-11-19T04:35:56;8.95;;;6.53;;
50789;SDS011;37287;47.554;7.844;2023-11-19T04:38:25;6.38;;;5.70;;
50789;SDS011;37287;47.554;7.844;2023-11-19T04:40:53;7.55;;;6.40;;
50789;SDS011;37287;47.554;7.844;2023-11-19T04:43:19;8.88;;;6.88;;
50789;SDS011;37287;47.554;7.844;2023-11-19T04:45:46;7.38;;;6.47;;
50789;SDS011;37287;47.554;7.844;2023-11-19T04:48:13;6.47;;;5.88;;
50789;SDS011;37287;47.554;7.844;2023-11-19T04:50:44;7.63;;;6.70;;
50789;SDS011;37287;47.554;7.844;2023-11-19T04:53:11;7.00;;;6.20;;
50789;SDS011;37287;47.554;7.844;2023-11-19T04:55:38;7.45;;;6.68;;
50789;SDS011;37287;47.554;7.844;2023-11-19T04:58:06;6.18;;;5.57;;
50789;SDS011;37287;47.554;7.844;2023-11-19T05:00:33;7.18;;;6.00;;
50789;SDS011;37287;47.554;7.844;2023-11-19T05:02:59;6.25;;;5.65;;
50789;SDS011;37287;47.554;7.844;2023-11-19T05:05:26;6.43;;;5.80;;
50789;SDS011;37287;47.554;7.844;2023-11-19T05:10:37;6.18;;;5.57;;
50789;SDS011;37287;47.554;7.844;2023-11-19T05:13:04;6.60;;;5.90;;
50789;SDS011;37287;47.554;7.844;2023-11-19T05:15:31;7.03;;;6.10;;
50789;SDS011;37287;47.554;7.844;2023-11-19T05:20:29;6.78;;;6.03;;
50789;SDS011;37287;47.554;7.844;2023-11-19T05:22:56;7.18;;;6.07;;
50789;SDS011;37287;47.554;7.844;2023-11-19T05:25:23;7.25;;;6.38;;
50789;SDS011;37287;47.554;7.844;2023-11-19T05:30:21;7.65;;;6.68;;
50789;SDS011;37287;47.554;7.844;2023-11-19T05:32:49;6.35;;;5.43;;
50789;SDS011;37287;47.554;7.844;2023-11-19T05:35:17;6.45;;;5.75;;
50789;SDS011;37287;47.554;7.844;2023-11-19T05:37:44;6.82;;;5.72;;
50789;SDS011;37287;47.554;7.844;2023-11-19T05:40:10;5.60;;;4.95;;
50789;SDS011;37287;47.554;7.844;2023-11-19T05:42:47;5.82;;;5.22;;
50789;SDS011;37287;47.554;7.844;2023-11-19T05:45:13;6.32;;;4.97;;
50789;SDS011;37287;47.554;7.844;2023-11-19T05:47:40;5.68;;;5.10;;
50789;SDS011;37287;47.554;7.844;2023-11-19T05:50:07;4.90;;;4.40;;
50789;SDS011;37287;47.554;7.844;2023-11-19T05:52:36;6.55;;;5.53;;
50789;SDS011;37287;47.554;7.844;2023-11-19T05:55:03;6.20;;;5.60;;
50789;SDS011;37287;47.554;7.844;2023-11-19T05:57:32;7.45;;;6.50;;
50789;SDS011;37287;47.554;7.844;2023-11-19T06:00:24;6.03;;;5.35;;
50789;SDS011;37287;47.554;7.844;2023-11-19T06:02:51;5.55;;;4.90;;
50789;SDS011;37287;47.554;7.844;2023-11-19T06:05:23;6.63;;;5.47;;
50789;SDS011;37287;47.554;7.844;2023-11-19T06:07:49;5.97;;;5.38;;
50789;SDS011;37287;47.554;7.844;2023-11-19T06:10:17;6.68;;;5.55;;
50789;SDS011;37287;47.554;7.844;2023-11-19T06:12:44;6.13;;;5.30;;
50789;SDS011;37287;47.554;7.844;2023-11-19T06:15:12;6.90;;;5.80;;
50789;SDS011;37287;47.554;7.844;2023-11-19T06:17:39;6.32;;;5.55;;
50789;SDS011;37287;47.554;7.844;2023-11-19T06:20:08;6.57;;;5.43;;
50789;SDS011;37287;47.554;7.844;2023-11-19T06:22:35;6.18;;;5.35;;
50789;SDS011;37287;47.554;7.844;2023-11-19T06:25:02;6.70;;;5.68;;
50789;SDS011;37287;47.554;7.844;2023-11-19T06:27:34;7.15;;;6.15;;
50789;SDS011;37287;47.554;7.844;2023-11-19T06:30:01;6.05;;;5.35;;
50789;SDS011;37287;47.554;7.844;2023-11-19T06:32:27;7.15;;;6.15;;
50789;SDS011;37287;47.554;7.844;2023-11-19T06:34:59;6.93;;;6.00;;
50789;SDS011;37287;47.554;7.844;2023-11-19T06:37:26;8.45;;;6.70;;
50789;SDS011;37287;47.554;7.844;2023-11-19T06:39:53;7.05;;;5.75;;
50789;SDS011;37287;47.554;7.844;2023-11-19T06:42:25;7.32;;;5.90;;
50789;SDS011;37287;47.554;7.844;2023-11-19T06:44:54;8.52;;;6.05;;
50789;SDS011;37287;47.554;7.844;2023-11-19T06:47:26;7.30;;;5.97;;
50789;SDS011;37287;47.554;7.844;2023-11-19T06:49:56;7.50;;;6.40;;
50789;SDS011;37287;47.554;7.844;2023-11-19T06:52:25;7.90;;;6.00;;
50789;SDS011;37287;47.554;7.844;2023-11-19T06:54:52;6.60;;;5.70;;
50789;SDS011;37287;47.554;7.844;2023-11-19T06:57:18;6.30;;;5.70;;
50789;SDS011;37287;47.554;7.844;2023-11-19T06:59:46;6.90;;;5.80;;
50789;SDS011;37287;47.554;7.844;2023-11-19T07:02:13;6.97;;;6.28;;
50789;SDS011;37287;47.554;7.844;2023-11-19T07:04:40;7.18;;;5.88;;
50789;SDS011;37287;47.554;7.844;2023-11-19T07:07:07;6.72;;;5.50;;
50789;SDS011;37287;47.554;7.844;2023-11-19T07:09:34;6.55;;;5.63;;
50789;SDS011;37287;47.554;7.844;2023-11-19T07:12:00;6.18;;;5.50;;
50789;SDS011;37287;47.554;7.844;2023-11-19T07:14:28;8.73;;;6.28;;
50789;SDS011;37287;47.554;7.844;2023-11-19T07:16:56;6.82;;;6.13;;
50789;SDS011;37287;47.554;7.844;2023-11-19T07:19:23;7.07;;;6.35;;
50789;SDS011;37287;47.554;7.844;2023-11-19T07:21:50;8.07;;;7.22;;
50789;SDS011;37287;47.554;7.844;2023-11-19T07:24:16;7.63;;;5.93;;
50789;SDS011;37287;47.554;7.844;2023-11-19T07:26:43;8.77;;;7.07;;
50789;SDS011;37287;47.554;7.844;2023-11-19T07:29:10;7.88;;;6.50;;
50789;SDS011;37287;47.554;7.844;2023-11-19T07:31:55;13.05;;;6.93;;
50789;SDS011;37287;47.554;7.844;2023-11-19T07:34:22;8.82;;;7.07;;
50789;SDS011;37287;47.554;7.844;2023-11-19T07:36:51;8.65;;;7.43;;
50789;SDS011;37287;47.554;7.844;2023-11-19T07:39:18;9.20;;;7.10;;
50789;SDS011;37287;47.554;7.844;2023-11-19T07:41:47;8.90;;;7.75;;
50789;SDS011;37287;47.554;7.844;2023-11-19T07:44:15;10.55;;;7.47;;
50789;SDS011;37287;47.554;7.844;2023-11-19T07:46:42;9.40;;;8.13;;
50789;SDS011;37287;47.554;7.844;2023-11-19T07:49:08;9.05;;;7.95;;
50789;SDS011;37287;47.554;7.844;2023-11-19T07:51:38;9.50;;;7.15;;
50789;SDS011;37287;47.554;7.844;2023-11-19T07:54:04;10.13;;;7.55;;
50789;SDS011;37287;47.554;7.844;2023-11-19T07:56:32;7.82;;;6.90;;
50789;SDS011;37287;47.554;7.844;2023-11-19T07:59:03;12.10;;;7.80;;
50789;SDS011;37287;47.554;7.844;2023-11-19T08:01:30;9.30;;;7.50;;
50789;SDS011;37287;47.554;7.844;2023-11-19T08:03:58;9.40;;;7.78;;
50789;SDS011;37287;47.554;7.844;2023-11-19T08:06:26;8.32;;;7.45;;
50789;SDS011;37287;47.554;7.844;2023-11-19T08:08:53;9.75;;;8.20;;
50789;SDS011;37287;47.554;7.844;2023-11-19T08:11:19;13.80;;;10.32;;
50789;SDS011;37287;47.554;7.844;2023-11-19T08:13:46;14.07;;;11.38;;
50789;SDS011;37287;47.554;7.844;2023-11-19T08:16:13;13.30;;;9.70;;
50789;SDS011;37287;47.554;7.844;2023-11-19T08:18:42;24.70;;;16.83;;
50789;SDS011;37287;47.554;7.844;2023-11-19T08:21:11;32.08;;;21.50;;
50789;SDS011;37287;47.554;7.844;2023-11-19T08:23:37;37.70;;;23.88;;
50789;SDS011;37287;47.554;7.844;2023-11-19T08:26:05;33.10;;;20.65;;
50789;SDS011;37287;47.554;7.844;2023-11-19T08:28:32;28.38;;;17.25;;
50789;SDS011;37287;47.554;7.844;2023-11-19T08:31:01;21.70;;;15.18;;
50789;SDS011;37287;47.554;7.844;2023-11-19T08:33:32;25.83;;;14.82;;
50789;SDS011;37287;47.554;7.844;2023-11-19T08:36:01;15.00;;;11.63;;
50789;SDS011;37287;47.554;7.844;2023-11-19T08:38:30;18.95;;;12.25;;
50789;SDS011;37287;47.554;7.844;2023-11-19T08:40:57;17.85;;;10.65;;
50789;SDS011;37287;47.554;7.844;2023-11-19T08:43:38;13.38;;;9.20;;
50789;SDS011;37287;47.554;7.844;2023-11-19T08:46:11;10.68;;;8.93;;
50789;SDS011;37287;47.554;7.844;2023-11-19T08:48:38;11.55;;;7.90;;
50789;SDS011;37287;47.554;7.844;2023-11-19T08:51:06;11.15;;;7.47;;
50789;SDS011;37287;47.554;7.844;2023-11-19T08:53:33;8.63;;;6.63;;
50789;SDS011;37287;47.554;7.844;2023-11-19T08:56:00;7.45;;;6.30;;
50789;SDS011;37287;47.554;7.844;2023-11-19T08:58:30;7.88;;;6.53;;
50789;SDS011;37287;47.554;7.844;2023-11-19T09:00:58;7.78;;;6.60;;
50789;SDS011;37287;47.554;7.844;2023-11-19T09:03:24;8.48;;;6.32;;
50789;SDS011;37287;47.554;7.844;2023-11-19T09:05:53;9.30;;;6.57;;
50789;SDS011;37287;47.554;7.844;2023-11-19T09:08:20;8.52;;;7.35;;
50789;SDS011;37287;47.554;7.844;2023-11-19T09:10:46;9.25;;;8.00;;
50789;SDS011;37287;47.554;7.844;2023-11-19T09:13:15;8.25;;;6.90;;
50789;SDS011;37287;47.554;7.844;2023-11-19T09:15:41;7.50;;;6.80;;
50789;SDS011;37287;47.554;7.844;2023-11-19T09:18:08;11.05;;;7.28;;
50789;SDS011;37287;47.554;7.844;2023-11-19T09:20:35;8.13;;;7.32;;
50789;SDS011;37287;47.554;7.844;2023-11-19T09:23:05;7.90;;;6.80;;
50789;SDS011;37287;47.554;7.844;2023-11-19T09:25:32;8.15;;;6.57;;
50789;SDS011;37287;47.554;7.844;2023-11-19T09:28:02;10.50;;;6.85;;
50789;SDS011;37287;47.554;7.844;2023-11-19T09:30:29;7.72;;;6.78;;
50789;SDS011;37287;47.554;7.844;2023-11-19T09:32:55;7.43;;;6.72;;
50789;SDS011;37287;47.554;7.844;2023-11-19T09:35:35;7.57;;;6.80;;
50789;SDS011;37287;47.554;7.844;2023-11-19T09:38:02;7.30;;;6.03;;
50789;SDS011;37287;47.554;7.844;2023-11-19T09:40:30;8.75;;;5.90;;
50789;SDS011;37287;47.554;7.844;2023-11-19T09:42:58;7.68;;;6.40;;
50789;SDS011;37287;47.554;7.844;2023-11-19T09:45:25;7.05;;;5.80;;
50789;SDS011;37287;47.554;7.844;2023-11-19T09:47:54;6.80;;;5.88;;
50789;SDS011;37287;47.554;7.844;2023-11-19T09:50:24;7.47;;;5.57;;
50789;SDS011;37287;47.554;7.844;2023-11-19T09:52:50;7.38;;;5.00;;
50789;SDS011;37287;47.554;7.844;2023-11-19T09:55:17;4.40;;;4.00;;
50789;SDS011;37287;47.554;7.844;2023-11-19T09:57:46;5.07;;;4.47;;
50789;SDS011;37287;47.554;7.844;2023-11-19T10:00:15;8.38;;;5.40;;
50789;SDS011;37287;47.554;7.844;2023-11-19T10:02:45;4.80;;;3.60;;
50789;SDS011;37287;47.554;7.844;2023-11-19T10:05:15;4.60;;;3.50;;
50789;SDS011;37287;47.554;7.844;2023-11-19T10:07:42;3.55;;;3.05;;
50789;SDS011;37287;47.554;7.844;2023-11-19T10:10:10;4.82;;;3.35;;
50789;SDS011;37287;47.554;7.844;2023-11-19T10:12:46;6.10;;;3.50;;
50789;SDS011;37287;47.554;7.844;2023-11-19T10:15:21;4.93;;;3.35;;
50789;SDS011;37287;47.554;7.844;2023-11-19T10:17:57;3.75;;;3.45;;
50789;SDS011;37287;47.554;7.844;2023-11-19T10:20:24;5.07;;;4.47;;
50789;SDS011;37287;47.554;7.844;2023-11-19T10:22:54;7.28;;;4.20;;
50789;SDS011;37287;47.554;7.844;2023-11-19T10:25:24;4.65;;;3.60;;
50789;SDS011;37287;47.554;7.844;2023-11-19T10:27:52;4.10;;;3.70;;
50789;SDS011;37287;47.554;7.844;2023-11-19T10:30:24;3.97;;;3.22;;
50789;SDS011;37287;47.554;7.844;2023-11-19T10:33:05;4.97;;;3.25;;
50789;SDS011;37287;47.554;7.844;2023-11-19T10:35:51;5.28;;;3.53;;
50789;SDS011;37287;47.554;7.844;2023-11-19T10:38:24;4.72;;;3.20;;
50789;SDS011;37287;47.554;7.844;2023-11-19T10:40:53;3.90;;;3.50;;
50789;SDS011;37287;47.554;7.844;2023-11-19T10:43:23;4.80;;;3.65;;
50789;SDS011;37287;47.554;7.844;2023-11-19T10:45:50;3.65;;;3.35;;
50789;SDS011;37287;47.554;7.844;2023-11-19T10:48:17;3.88;;;3.35;;
50789;SDS011;37287;47.554;7.844;2023-11-19T10:50:44;2.83;;;2.38;;
50789;SDS011;37287;47.554;7.844;2023-11-19T10:53:12;3.78;;;2.90;;
50789;SDS011;37287;47.554;7.844;2023-11-19T10:55:42;3.90;;;2.58;;
50789;SDS011;37287;47.554;7.844;2023-11-19T10:58:21;4.20;;;2.65;;
50789;SDS011;37287;47.554;7.844;2023-11-19T11:00:52;5.18;;;2.60;;
50789;SDS011;37287;47.554;7.844;2023-11-19T11:03:22;3.50;;;2.63;;
50789;SDS011;37287;47.554;7.844;2023-11-19T11:05:52;3.45;;;2.60;;
50789;SDS011;37287;47.554;7.844;2023-11-19T11:08:20;3.05;;;2.50;;
50789;SDS011;37287;47.554;7.844;2023-11-19T11:10:56;2.40;;;2.20;;
50789;SDS011;37287;47.554;7.844;2023-11-19T11:13:28;2.78;;;1.83;;
50789;SDS011;37287;47.554;7.844;2023-11-19T11:15:56;2.83;;;2.10;;
50789;SDS011;37287;47.554;7.844;2023-11-19T11:18:26;4.45;;;2.75;;
50789;SDS011;37287;47.554;7.844;2023-11-19T11:21:11;2.00;;;1.80;;
50789;SDS011;37287;47.554;7.844;2023-11-19T11:24:06;3.08;;;1.55;;
50789;SDS011;37287;47.554;7.844;2023-11-19T11:26:59;2.03;;;1.40;;
50789;SDS011;37287;47.554;7.844;2023-11-19T11:32:21;1.73;;;1.45;;
50789;SDS011;37287;47.554;7.844;2023-11-19T11:38:06;2.22;;;1.20;;
50789;SDS011;37287;47.554;7.844;2023-11-19T11:40:34;1.33;;;1.20;;
50789;SDS011;37287;47.554;7.844;2023-11-19T11:43:02;1.23;;;1.10;;
50789;SDS011;37287;47.554;7.844;2023-11-19T11:45:35;2.58;;;1.20;;
50789;SDS011;37287;47.554;7.844;2023-11-19T11:48:15;1.90;;;1.40;;
50789;SDS011;37287;47.554;7.844;2023-11-19T11:50:54;1.88;;;1.38;;
50789;SDS011;37287;47.554;7.844;2023-11-19T11:53:23;1.20;;;1.13;;
50789;SDS011;37287;47.554;7.844;2023-11-19T11:55:56;1.50;;;1.40;;
50789;SDS011;37287;47.554;7.844;2023-11-19T11:58:26;1.40;;;1.30;;
50789;SDS011;37287;47.554;7.844;2023-11-19T12:00:57;2.28;;;1.20;;
50789;SDS011;37287;47.554;7.844;2023-11-19T12:03:28;1.92;;;1.50;;
50789;SDS011;37287;47.554;7.844;2023-11-19T12:05:56;2.33;;;1.30;;
50789;SDS011;37287;47.554;7.844;2023-11-19T12:08:25;1.13;;;1.02;;
50789;SDS011;37287;47.554;7.844;2023-11-19T12:10:56;1.92;;;1.20;;
50789;SDS011;37287;47.554;7.844;2023-11-19T12:13:43;2.05;;;1.25;;
50789;SDS011;37287;47.554;7.844;2023-11-19T12:16:15;1.20;;;1.05;;
50789;SDS011;37287;47.554;7.844;2023-11-19T12:18:42;1.10;;;1.10;;
50789;SDS011;37287;47.554;7.844;2023-11-19T12:21:09;1.00;;;1.00;;
50789;SDS011;37287;47.554;7.844;2023-11-19T12:23:44;1.52;;;1.10;;
50789;SDS011;37287;47.554;7.844;2023-11-19T12:29:08;5.15;;;1.20;;
50789;SDS011;37287;47.554;7.844;2023-11-19T12:31:36;2.22;;;1.20;;
50789;SDS011;37287;47.554;7.844;2023-11-19T12:34:06;1.33;;;1.10;;
50789;SDS011;37287;47.554;7.844;2023-11-19T12:36:36;1.20;;;1.10;;
50789;SDS011;37287;47.554;7.844;2023-11-19T12:39:06;1.55;;;1.45;;
50789;SDS011;37287;47.554;7.844;2023-11-19T12:41:33;1.95;;;1.25;;
50789;SDS011;37287;47.554;7.844;2023-11-19T12:44:19;11.77;;;1.60;;
50789;SDS011;37287;47.554;7.844;2023-11-19T12:49:37;1.80;;;1.20;;
50789;SDS011;37287;47.554;7.844;2023-11-19T12:52:13;3.13;;;1.20;;
50789;SDS011;37287;47.554;7.844;2023-11-19T12:54:48;1.33;;;1.23;;
50789;SDS011;37287;47.554;7.844;2023-11-19T12:57:15;1.40;;;1.30;;
50789;SDS011;37287;47.554;7.844;2023-11-19T12:59:41;1.42;;;1.25;;
50789;SDS011;37287;47.554;7.844;2023-11-19T13:02:09;2.20;;;1.17;;
50789;SDS011;37287;47.554;7.844;2023-11-19T13:04:36;1.08;;;1.08;;
50789;SDS011;37287;47.554;7.844;2023-11-19T13:07:05;1.02;;;0.98;;
50789;SDS011;37287;47.554;7.844;2023-11-19T13:09:34;3.20;;;1.13;;
50789;SDS011;37287;47.554;7.844;2023-11-19T13:12:11;2.58;;;1.75;;
50789;SDS011;37287;47.554;7.844;2023-11-19T13:14:43;2.10;;;1.08;;
50789;SDS011;37287;47.554;7.844;2023-11-19T13:17:15;1.40;;;1.00;;
50789;SDS011;37287;47.554;7.844;2023-11-19T13:19:42;3.55;;;1.50;;
50789;SDS011;37287;47.554;7.844;2023-11-19T13:22:10;1.63;;;1.10;;
50789;SDS011;37287;47.554;7.844;2023-11-19T13:24:37;1.20;;;1.10;;
50789;SDS011;37287;47.554;7.844;2023-11-19T13:27:04;1.77;;;1.30;;
50789;SDS011;37287;47.554;7.844;2023-11-19T13:29:32;2.33;;;1.38;;
50789;SDS011;37287;47.554;7.844;2023-11-19T13:32:00;1.40;;;1.20;;
50789;SDS011;37287;47.554;7.844;2023-11-19T13:34:27;1.13;;;1.00;;
50789;SDS011;37287;47.554;7.844;2023-11-19T13:37:00;1.55;;;1.13;;
50789;SDS011;37287;47.554;7.844;2023-11-19T13:39:27;1.23;;;0.80;;
50789;SDS011;37287;47.554;7.844;2023-11-19T13:41:53;1.25;;;1.00;;
50789;SDS011;37287;47.554;7.844;2023-11-19T13:44:38;0.90;;;0.80;;
50789;SDS011;37287;47.554;7.844;2023-11-19T13:47:05;3.65;;;0.85;;
50789;SDS011;37287;47.554;7.844;2023-11-19T13:49:38;1.38;;;0.93;;
50789;SDS011;37287;47.554;7.844;2023-11-19T13:52:05;0.70;;;0.70;;
50789;SDS011;37287;47.554;7.844;2023-11-19T13:54:32;1.02;;;0.80;;
50789;SDS011;37287;47.554;7.844;2023-11-19T13:57:05;1.85;;;0.82;;
50789;SDS011;37287;47.554;7.844;2023-11-19T13:59:31;1.42;;;1.05;;
50789;SDS011;37287;47.554;7.844;2023-11-19T14:01:59;2.42;;;1.80;;
50789;SDS011;37287;47.554;7.844;2023-11-19T14:04:27;2.05;;;1.45;;
50789;SDS011;37287;47.554;7.844;2023-11-19T14:06:57;1.25;;;1.05;;
50789;SDS011;37287;47.554;7.844;2023-11-19T14:09:24;1.65;;;0.98;;
50789;SDS011;37287;47.554;7.844;2023-11-19T14:11:52;1.48;;;0.80;;
50789;SDS011;37287;47.554;7.844;2023-11-19T14:14:19;1.77;;;0.90;;
50789;SDS011;37287;47.554;7.844;2023-11-19T14:16:46;2.65;;;1.13;;
50789;SDS011;37287;47.554;7.844;2023-11-19T14:19:14;1.10;;;1.05;;
50789;SDS011;37287;47.554;7.844;2023-11-19T14:21:41;1.13;;;1.00;;
50789;SDS011;37287;47.554;7.844;2023-11-19T14:24:08;1.20;;;1.13;;
50789;SDS011;37287;47.554;7.844;2023-11-19T14:26:34;1.80;;;0.95;;
50789;SDS011;37287;47.554;7.844;2023-11-19T14:29:01;2.72;;;1.30;;
50789;SDS011;37287;47.554;7.844;2023-11-19T14:31:28;2.40;;;1.10;;
50789;SDS011;37287;47.554;7.844;2023-11-19T14:34:04;3.28;;;1.13;;
50789;SDS011;37287;47.554;7.844;2023-11-19T14:36:31;4.13;;;1.00;;
50789;SDS011;37287;47.554;7.844;2023-11-19T14:38:57;1.10;;;0.90;;
50789;SDS011;37287;47.554;7.844;2023-11-19T14:41:35;1.58;;;1.00;;
50789;SDS011;37287;47.554;7.844;2023-11-19T14:44:05;1.45;;;1.02;;
50789;SDS011;37287;47.554;7.844;2023-11-19T14:46:32;1.58;;;1.15;;
50789;SDS011;37287;47.554;7.844;2023-11-19T14:48:59;3.08;;;1.25;;
50789;SDS011;37287;47.554;7.844;2023-11-19T14:51:26;1.92;;;1.20;;
50789;SDS011;37287;47.554;7.844;2023-11-19T14:53:53;2.10;;;1.45;;
50789;SDS011;37287;47.554;7.844;2023-11-19T14:56:20;2.92;;;1.30;;
50789;SDS011;37287;47.554;7.844;2023-11-19T14:58:47;2.80;;;1.25;;
50789;SDS011;37287;47.554;7.844;2023-11-19T15:01:13;1.48;;;1.20;;
50789;SDS011;37287;47.554;7.844;2023-11-19T15:03:40;1.83;;;1.35;;
50789;SDS011;37287;47.554;7.844;2023-11-19T15:06:10;6.35;;;2.67;;
50789;SDS011;37287;47.554;7.844;2023-11-19T15:08:41;6.15;;;2.28;;
50789;SDS011;37287;47.554;7.844;2023-11-19T15:11:08;6.18;;;1.67;;
50789;SDS011;37287;47.554;7.844;2023-11-19T15:13:35;1.48;;;0.98;;
50789;SDS011;37287;47.554;7.844;2023-11-19T15:16:04;1.52;;;1.20;;
50789;SDS011;37287;47.554;7.844;2023-11-19T15:18:37;3.88;;;1.60;;
50789;SDS011;37287;47.554;7.844;2023-11-19T15:21:04;1.65;;;1.30;;
50789;SDS011;37287;47.554;7.844;2023-11-19T15:23:32;0.98;;;0.90;;
50789;SDS011;37287;47.554;7.844;2023-11-19T15:25:59;1.42;;;1.08;;
50789;SDS011;37287;47.554;7.844;2023-11-19T15:28:25;2.58;;;1.20;;
50789;SDS011;37287;47.554;7.844;2023-11-19T15:30:52;2.63;;;0.93;;
50789;SDS011;37287;47.554;7.844;2023-11-19T15:33:19;1.88;;;0.80;;
50789;SDS011;37287;47.554;7.844;2023-11-19T15:35:45;4.22;;;2.20;;
50789;SDS011;37287;47.554;7.844;2023-11-19T15:38:12;3.83;;;1.40;;
50789;SDS011;37287;47.554;7.844;2023-11-19T15:40:39;1.55;;;1.30;;